Lake Worth, Florida
Current Conditions -  °F | °C
As of 4:53 PM on Friday 24 Oct 2014 (Local Time) from KPBI Reporting Station
Broken Clouds Broken Clouds  
Wind Chill: 79°   Ceiling: 3900
Heat Index: 81°   Visibility: 10mi
Dew Point: 67°   Wind: 16mph
Humidity: 66%   Direction: 50°NE
Pressure: 29.82"   Gusts: 25mph
Location:  26.62°N, 80.06°W
Report Text: KPBI 242053Z 05014G22KT 10SM SCT030 BKN039 BKN055 26/19 A2982 RMK AO2 SLP098 T02610194 56015
Loading
Personal Weather Stations






























Interactive Weather Map New forecast layout! Learn more

10-Day Weather Forecast

Advertisements
Track Severe Weather on mobile